createdAt,value
2022-09-24T00:00:12.954Z,101286.00
2022-09-24T00:02:40.598Z,101289.31
2022-09-24T00:05:10.195Z,101282.56
2022-09-24T00:07:37.734Z,101277.78
2022-09-24T00:10:05.586Z,101281.41
2022-09-24T00:12:33.127Z,101282.25
2022-09-24T00:15:00.658Z,101276.31
2022-09-24T00:17:28.169Z,101279.94
2022-09-24T00:19:55.704Z,101280.56
2022-09-24T00:22:24.621Z,101280.56
2022-09-24T00:25:09.707Z,101283.19
2022-09-24T00:27:37.208Z,101276.75
2022-09-24T00:30:04.948Z,101275.91
2022-09-24T00:32:32.515Z,101273.41
2022-09-24T00:35:00.100Z,101270.91
2022-09-24T00:37:29.582Z,101270.09
2022-09-24T00:39:57.157Z,101265.59
2022-09-24T00:42:25.548Z,101268.41
2022-09-24T00:44:54.886Z,101268.41
2022-09-24T00:47:30.845Z,101268.75
2022-09-24T00:50:01.755Z,101273.56
2022-09-24T00:52:30.770Z,101266.59
2022-09-24T00:54:58.384Z,101269.19
2022-09-24T00:57:26.441Z,101272.00
2022-09-24T00:59:54.855Z,101274.28
2022-09-24T01:02:22.637Z,101278.25
2022-09-24T01:04:53.220Z,101278.56
2022-09-24T01:07:23.806Z,101268.47
2022-09-24T01:09:52.749Z,101270.47
2022-09-24T01:12:25.191Z,101270.78
2022-09-24T01:15:08.585Z,101275.88
2022-09-24T01:17:40.395Z,101271.41
2022-09-24T01:20:26.437Z,101266.94
2022-09-24T01:23:03.421Z,101268.41
2022-09-24T01:25:38.806Z,101265.09
2022-09-24T01:28:16.741Z,101265.09
2022-09-24T01:30:47.158Z,101269.03
2022-09-24T01:33:18.712Z,101276.63
2022-09-24T01:35:49.412Z,101274.13
2022-09-24T01:38:19.356Z,101269.66
2022-09-24T01:40:47.527Z,101267.19
2022-09-24T01:43:16.894Z,101261.56
2022-09-24T01:45:45.948Z,101264.69
2022-09-24T01:48:13.675Z,101262.19
2022-09-24T01:50:43.896Z,101259.69
2022-09-24T01:53:13.946Z,101262.81
2022-09-24T01:55:44.975Z,101266.75
2022-09-24T01:58:16.847Z,101259.50
2022-09-24T02:00:49.634Z,101255.28
2022-09-24T02:03:20.070Z,101243.22
2022-09-24T02:05:51.430Z,101252.84
2022-09-24T02:08:22.173Z,101248.69
2022-09-24T02:10:52.655Z,101245.34
2022-09-24T02:13:24.631Z,101250.97
2022-09-24T02:15:56.045Z,101251.28
2022-09-24T02:18:27.407Z,101255.22
2022-09-24T02:20:55.666Z,101247.63
2022-09-24T02:23:25.625Z,101245.97
2022-09-24T02:25:55.524Z,101249.09
2022-09-24T02:28:23.114Z,101253.03
2022-09-24T02:30:52.643Z,101244.09
2022-09-24T02:33:40.334Z,101247.75
2022-09-24T02:36:08.293Z,101252.84
2022-09-24T02:38:36.162Z,101246.38
2022-09-24T02:41:03.794Z,101240.78
2022-09-24T02:43:31.348Z,101247.22
2022-09-24T02:45:58.934Z,101232.97
2022-09-24T02:48:27.872Z,101230.16
2022-09-24T02:50:55.430Z,101241.41
2022-09-24T02:53:23.181Z,101239.72
2022-09-24T02:55:50.706Z,101236.44
2022-09-24T02:58:18.269Z,101239.56
2022-09-24T03:00:45.860Z,101225.00
2022-09-24T03:03:13.473Z,101224.19
2022-09-24T03:05:42.422Z,101227.28
2022-09-24T03:08:09.958Z,101225.63
2022-09-24T03:10:37.486Z,101229.28
2022-09-24T03:13:05.025Z,101232.91
2022-09-24T03:15:32.526Z,101225.63
2022-09-24T03:18:00.076Z,101232.06
2022-09-24T03:20:27.614Z,101237.69
2022-09-24T03:22:56.512Z,101234.56
2022-09-24T03:25:25.238Z,101239.34
2022-09-24T03:27:52.825Z,101243.00
2022-09-24T03:30:37.969Z,101241.31
2022-09-24T03:33:05.635Z,101236.53
2022-09-24T03:35:33.379Z,101237.38
2022-09-24T03:38:02.284Z,101242.69
2022-09-24T03:40:30.002Z,101246.31
2022-09-24T03:42:58.093Z,101238.41
2022-09-24T03:45:25.830Z,101241.22
2022-09-24T03:47:53.361Z,101234.47
2022-09-24T03:50:20.943Z,101240.06
2022-09-24T03:52:48.497Z,101241.53
2022-09-24T03:55:17.403Z,101237.69
2022-09-24T03:57:45.236Z,101242.25
2022-09-24T04:00:13.203Z,101241.22
2022-09-24T04:02:41.589Z,101245.47
2022-09-24T04:05:09.584Z,101244.47
2022-09-24T04:07:37.146Z,101245.91
2022-09-24T04:10:04.873Z,101247.88
2022-09-24T04:12:35.226Z,101251.00
2022-09-24T04:15:03.531Z,101242.59
2022-09-24T04:17:31.551Z,101250.19
2022-09-24T04:19:59.135Z,101251.84
2022-09-24T04:22:29.078Z,101254.66
2022-09-24T04:24:57.557Z,101251.63
2022-09-24T04:27:25.264Z,101256.41
2022-09-24T04:29:54.480Z,101257.84
2022-09-24T04:32:22.470Z,101268.25
2022-09-24T04:34:51.036Z,101256.81
2022-09-24T04:37:18.534Z,101257.94
2022-09-24T04:39:46.065Z,101263.03
2022-09-24T04:42:16.941Z,101261.41
2022-09-24T04:44:47.791Z,101268.16
2022-09-24T04:47:16.748Z,101260.34
2022-09-24T04:49:45.869Z,101272.41
2022-09-24T04:52:14.956Z,101265.97
2022-09-24T04:54:45.085Z,101267.63
2022-09-24T04:57:12.647Z,101271.56
2022-09-24T04:59:40.230Z,101276.34
2022-09-24T05:02:09.842Z,101276.34
2022-09-24T05:04:39.065Z,101273.84
2022-09-24T05:07:06.763Z,101273.03
2022-09-24T05:09:34.511Z,101272.19
2022-09-24T05:12:02.280Z,101279.78
2022-09-24T05:14:30.173Z,101284.56
2022-09-24T05:16:57.845Z,101281.75
2022-09-24T05:19:25.558Z,101282.56
2022-09-24T05:21:54.506Z,101288.19
2022-09-24T05:24:22.068Z,101281.75
2022-09-24T05:27:07.262Z,101286.53
2022-09-24T05:29:34.824Z,101285.16
2022-09-24T05:32:05.532Z,101288.28
2022-09-24T05:34:33.321Z,101288.88
2022-09-24T05:37:03.518Z,101297.31
2022-09-24T05:39:33.858Z,101293.13
2022-09-24T05:42:03.653Z,101298.75
2022-09-24T05:44:31.287Z,101301.06
2022-09-24T05:46:58.942Z,101293.78
2022-09-24T05:49:26.490Z,101301.88
2022-09-24T05:51:53.993Z,101297.91
2022-09-24T05:54:22.903Z,101300.41
2022-09-24T05:56:50.441Z,101306.03
2022-09-24T05:59:18.155Z,101304.88
2022-09-24T06:01:45.987Z,101311.00
2022-09-24T06:04:13.915Z,101308.22
2022-09-24T06:06:41.510Z,101312.69
2022-09-24T06:09:10.081Z,101312.69
2022-09-24T06:11:40.889Z,101319.13
2022-09-24T06:14:09.096Z,101322.75
2022-09-24T06:16:37.037Z,101319.97
2022-09-24T06:19:04.879Z,101328.38
2022-09-24T06:21:32.525Z,101325.56
2022-09-24T06:24:00.054Z,101337.00
2022-09-24T06:26:28.333Z,101332.22
2022-09-24T06:29:02.139Z,101331.63
2022-09-24T06:31:32.340Z,101336.09
2022-09-24T06:34:00.470Z,101339.72
2022-09-24T06:36:28.177Z,101345.88
2022-09-24T06:38:55.977Z,101343.59
2022-09-24T06:41:23.848Z,101344.91
2022-09-24T06:43:54.436Z,101353.84
2022-09-24T06:46:25.803Z,101347.94
2022-09-24T06:48:54.891Z,101347.63
2022-09-24T06:51:22.637Z,101344.50
2022-09-24T06:53:52.036Z,101350.13
2022-09-24T06:56:19.793Z,101353.97
2022-09-24T06:58:47.623Z,101357.53
2022-09-24T07:01:15.412Z,101362.19
2022-09-24T07:03:44.512Z,101359.59
2022-09-24T07:06:12.214Z,101363.47
2022-09-24T07:08:39.893Z,101366.47
2022-09-24T07:11:07.764Z,101363.88
2022-09-24T07:13:35.758Z,101375.31
2022-09-24T07:16:03.850Z,101376.34
2022-09-24T07:18:31.661Z,101372.63
2022-09-24T07:21:00.737Z,101376.78
2022-09-24T07:23:28.440Z,101380.31
2022-09-24T07:25:56.974Z,101376.28
2022-09-24T07:28:24.760Z,101387.94
2022-09-24T07:30:57.479Z,101383.97
2022-09-24T07:33:25.324Z,101390.13
2022-09-24T07:35:53.203Z,101387.84
2022-09-24T07:38:22.369Z,101390.03
2022-09-24T07:40:50.312Z,101388.84
2022-09-24T07:43:18.046Z,101397.78
2022-09-24T07:45:46.492Z,101398.63
2022-09-24T07:48:15.796Z,101399.47
2022-09-24T07:50:43.682Z,101400.81
2022-09-24T07:53:12.038Z,101400.41
2022-09-24T07:55:41.698Z,101406.09
2022-09-24T07:58:09.931Z,101402.75
2022-09-24T08:00:37.615Z,101402.09
2022-09-24T08:03:05.713Z,101398.06
2022-09-24T08:05:34.007Z,101400.03
2022-09-24T08:08:01.898Z,101408.28
2022-09-24T08:10:29.646Z,101409.94
2022-09-24T08:13:02.337Z,101410.50
2022-09-24T08:15:30.080Z,101404.38
2022-09-24T08:18:01.586Z,101406.69
2022-09-24T08:20:29.509Z,101403.53
2022-09-24T08:23:01.687Z,101413.84
2022-09-24T08:25:29.448Z,101419.19
2022-09-24T08:28:01.858Z,101408.38
2022-09-24T08:30:29.656Z,101414.47
2022-09-24T08:32:57.618Z,101414.38
2022-09-24T08:35:25.482Z,101412.94
2022-09-24T08:37:54.688Z,101423.03
2022-09-24T08:40:24.775Z,101421.25
2022-09-24T08:42:56.387Z,101420.13
2022-09-24T08:45:42.874Z,101426.13
2022-09-24T08:48:14.762Z,101431.56
2022-09-24T08:50:47.659Z,101427.88
2022-09-24T08:53:18.799Z,101428.34
2022-09-24T08:55:48.093Z,101435.59
2022-09-24T08:58:24.158Z,101438.56
2022-09-24T09:00:55.910Z,101445.63
2022-09-24T09:03:29.078Z,101446.56
2022-09-24T09:06:00.631Z,101443.72
2022-09-24T09:08:54.954Z,101448.53
2022-09-24T09:11:22.954Z,101443.50
2022-09-24T09:13:54.234Z,101451.00
2022-09-24T09:16:26.204Z,101453.00
2022-09-24T09:18:55.754Z,101451.47
2022-09-24T09:21:27.445Z,101459.78
2022-09-24T09:23:57.401Z,101457.28
2022-09-24T09:26:27.276Z,101454.25
2022-09-24T09:28:57.444Z,101452.00
2022-09-24T09:31:33.070Z,101459.09
2022-09-24T09:34:06.490Z,101458.53
2022-09-24T09:36:45.191Z,101462.28
2022-09-24T09:39:22.451Z,101460.88
2022-09-24T09:41:54.260Z,101459.34
2022-09-24T09:44:25.760Z,101472.69
2022-09-24T09:46:58.131Z,101460.25
2022-09-24T09:49:29.225Z,101467.13
2022-09-24T09:51:57.751Z,101468.56
2022-09-24T09:54:36.605Z,101463.91
2022-09-24T09:57:05.101Z,101463.31
2022-09-24T09:59:34.605Z,101470.50
2022-09-24T10:02:03.879Z,101464.09
2022-09-24T10:04:39.261Z,101460.47
2022-09-24T10:07:10.596Z,101461.38
2022-09-24T10:09:39.140Z,101463.66
2022-09-24T10:12:24.603Z,101461.38
2022-09-24T10:14:58.147Z,101473.16
2022-09-24T10:17:31.646Z,101479.19
2022-09-24T10:20:01.612Z,101463.16
2022-09-24T10:22:29.726Z,101468.44
2022-09-24T10:24:59.824Z,101465.75
2022-09-24T10:27:31.089Z,101482.34
2022-09-24T10:30:16.558Z,101472.59
2022-09-24T10:32:45.977Z,101474.81
2022-09-24T10:35:24.416Z,101473.09
2022-09-24T10:37:53.708Z,101483.00
2022-09-24T10:40:24.261Z,101480.22
2022-09-24T10:42:59.412Z,101486.06
2022-09-24T10:45:54.083Z,101485.63
2022-09-24T10:48:27.211Z,101484.97
2022-09-24T10:50:58.804Z,101486.31
2022-09-24T10:53:34.703Z,101482.34
2022-09-24T10:56:06.459Z,101485.50
2022-09-24T10:58:42.195Z,101484.81
2022-09-24T11:01:15.766Z,101475.13
2022-09-24T11:03:54.821Z,101477.97
2022-09-24T11:06:28.458Z,101486.06
2022-09-24T11:09:03.590Z,101479.50
2022-09-24T11:11:37.754Z,101476.03
2022-09-24T11:14:13.212Z,101494.97
2022-09-24T11:17:11.060Z,101490.03
2022-09-24T11:19:55.951Z,101492.56
2022-09-24T11:22:30.614Z,101489.16
2022-09-24T11:25:19.125Z,101494.69
2022-09-24T11:27:52.629Z,101498.56
2022-09-24T11:30:21.507Z,101493.22
2022-09-24T11:33:01.721Z,101501.91
2022-09-24T11:35:47.390Z,101499.91
2022-09-24T11:38:19.919Z,101499.06
2022-09-24T11:41:00.380Z,101494.97
2022-09-24T11:43:39.291Z,101502.69
2022-09-24T11:46:13.176Z,101495.59
2022-09-24T11:48:50.638Z,101499.75
2022-09-24T11:51:22.337Z,101493.69
2022-09-24T11:53:55.214Z,101498.22
2022-09-24T11:56:25.724Z,101496.72
2022-09-24T11:59:00.248Z,101499.78
2022-09-24T12:01:29.962Z,101491.38
2022-09-24T12:03:59.920Z,101496.69
2022-09-24T12:06:31.591Z,101494.69
2022-09-24T12:09:04.082Z,101496.69
2022-09-24T12:11:33.990Z,101503.06
2022-09-24T12:14:04.434Z,101510.03
2022-09-24T12:16:34.665Z,101506.66
2022-09-24T12:19:04.675Z,101512.34
2022-09-24T12:21:34.465Z,101499.28
2022-09-24T12:24:06.889Z,101506.97
2022-09-24T12:26:37.202Z,101504.38
2022-09-24T12:29:32.893Z,101504.13
2022-09-24T12:32:22.595Z,101494.81
2022-09-24T12:34:53.749Z,101499.16
2022-09-24T12:37:23.592Z,101506.47
2022-09-24T12:39:58.062Z,101517.28
2022-09-24T12:42:29.272Z,101515.81
2022-09-24T12:45:00.189Z,101514.28
2022-09-24T12:47:29.319Z,101516.28
2022-09-24T12:49:59.196Z,101521.44
2022-09-24T12:52:28.472Z,101514.13
2022-09-24T12:55:00.457Z,101528.59
2022-09-24T12:57:33.082Z,101519.13
2022-09-24T13:00:02.014Z,101509.16
2022-09-24T13:02:31.351Z,101515.53
2022-09-24T13:05:16.618Z,101524.22
2022-09-24T13:07:44.561Z,101520.59
2022-09-24T13:10:22.500Z,101520.59
2022-09-24T13:12:50.784Z,101523.56
2022-09-24T13:15:28.457Z,101525.44
2022-09-24T13:18:04.309Z,101519.50
2022-09-24T13:20:32.685Z,101525.00
2022-09-24T13:23:12.175Z,101521.00
2022-09-24T13:25:42.262Z,101535.50
2022-09-24T13:28:21.563Z,101523.69
2022-09-24T13:30:52.097Z,101520.50
2022-09-24T13:33:24.179Z,101516.66
2022-09-24T13:36:02.670Z,101521.97
2022-09-24T13:38:31.915Z,101517.84
2022-09-24T13:41:03.680Z,101521.34
2022-09-24T13:43:39.504Z,101518.84
2022-09-24T13:46:11.963Z,101523.84
2022-09-24T13:48:42.424Z,101521.69
2022-09-24T13:51:13.028Z,101521.69
2022-09-24T13:53:43.361Z,101523.69
2022-09-24T13:56:15.722Z,101525.53
2022-09-24T13:58:43.993Z,101526.34
2022-09-24T14:01:13.450Z,101533.50
2022-09-24T14:03:42.381Z,101536.41
2022-09-24T14:06:14.015Z,101540.91
2022-09-24T14:08:42.478Z,101536.75
2022-09-24T14:11:16.661Z,101541.59
2022-09-24T14:13:45.974Z,101540.25
2022-09-24T14:16:15.928Z,101539.78
2022-09-24T14:18:43.945Z,101536.47
2022-09-24T14:21:13.586Z,101543.59
2022-09-24T14:23:43.730Z,101541.56
2022-09-24T14:26:17.286Z,101543.22
2022-09-24T14:28:46.656Z,101548.38
2022-09-24T14:31:14.460Z,101551.22
2022-09-24T14:33:42.336Z,101552.06
2022-09-24T14:36:13.784Z,101541.31
2022-09-24T14:38:53.218Z,101548.47
2022-09-24T14:41:23.370Z,101537.50
2022-09-24T14:43:54.490Z,101548.16
2022-09-24T14:46:23.386Z,101550.03
2022-09-24T14:48:52.273Z,101542.22
2022-09-24T14:51:27.760Z,101550.53
2022-09-24T14:53:59.317Z,101554.66
2022-09-24T14:56:28.944Z,101548.53
2022-09-24T14:58:58.099Z,101560.53
2022-09-24T15:01:30.354Z,101553.53
2022-09-24T15:03:59.568Z,101559.50
2022-09-24T15:06:28.318Z,101551.88
2022-09-24T15:08:57.978Z,101556.69
2022-09-24T15:11:28.077Z,101548.53
2022-09-24T15:14:01.221Z,101552.69
2022-09-24T15:16:30.681Z,101551.19
2022-09-24T15:19:00.262Z,101547.41
2022-09-24T15:21:28.233Z,101547.41
2022-09-24T15:23:56.754Z,101553.06
2022-09-24T15:26:27.025Z,101551.72
2022-09-24T15:28:56.354Z,101548.88
2022-09-24T15:31:25.828Z,101554.03
2022-09-24T15:33:53.776Z,101553.34
2022-09-24T15:36:21.664Z,101569.91
2022-09-24T15:38:49.785Z,101571.72
2022-09-24T15:41:17.766Z,101573.19
2022-09-24T15:43:45.476Z,101568.53
2022-09-24T15:46:13.329Z,101559.56
2022-09-24T15:48:42.706Z,101569.00
2022-09-24T15:51:15.405Z,101561.31
2022-09-24T15:53:43.517Z,101561.00
2022-09-24T15:56:11.345Z,101567.47
2022-09-24T15:58:39.072Z,101568.16
2022-09-24T16:01:07.823Z,101569.31
2022-09-24T16:03:35.574Z,101571.13
2022-09-24T16:06:04.764Z,101570.44
2022-09-24T16:08:32.493Z,101569.09
2022-09-24T16:11:00.192Z,101577.53
2022-09-24T16:13:27.863Z,101572.41
2022-09-24T16:15:55.707Z,101571.50
2022-09-24T16:18:26.020Z,101572.16
2022-09-24T16:20:55.003Z,101577.47
2022-09-24T16:23:24.083Z,101572.16
2022-09-24T16:25:55.662Z,101576.97
2022-09-24T16:28:23.704Z,101575.44
2022-09-24T16:30:51.502Z,101579.56
2022-09-24T16:33:19.245Z,101592.63
2022-09-24T16:35:47.005Z,101587.63
2022-09-24T16:38:17.728Z,101592.44
2022-09-24T16:40:52.207Z,101599.00
2022-09-24T16:43:20.018Z,101605.94
2022-09-24T16:45:47.739Z,101606.69
2022-09-24T16:48:15.699Z,101608.97
2022-09-24T16:50:43.482Z,101609.72
2022-09-24T16:53:11.245Z,101602.53
2022-09-24T16:55:39.314Z,101603.50
2022-09-24T16:58:09.561Z,101606.44
2022-09-24T17:00:37.320Z,101607.72
2022-09-24T17:03:05.230Z,101612.75
2022-09-24T17:05:34.180Z,101609.03
2022-09-24T17:08:03.136Z,101613.41
2022-09-24T17:10:29.853Z,101616.66
2022-09-24T17:12:57.898Z,101619.59
2022-09-24T17:15:27.340Z,101619.16
2022-09-24T17:17:55.096Z,101621.81
2022-09-24T17:20:22.914Z,101626.97
2022-09-24T17:22:50.633Z,101628.44
2022-09-24T17:25:18.429Z,101620.94
2022-09-24T17:27:50.299Z,101632.31
2022-09-24T17:30:18.091Z,101623.75
2022-09-24T17:32:47.455Z,101632.59
2022-09-24T17:35:15.234Z,101637.19
2022-09-24T17:37:43.915Z,101638.44
2022-09-24T17:40:12.794Z,101635.72
2022-09-24T17:42:41.539Z,101642.25
2022-09-24T17:45:10.225Z,101643.53
2022-09-24T17:47:51.831Z,101639.13
2022-09-24T17:50:21.408Z,101645.16
2022-09-24T17:52:49.125Z,101639.94
2022-09-24T17:55:16.901Z,101644.19
2022-09-24T17:57:44.915Z,101638.34
2022-09-24T18:00:12.998Z,101650.50
2022-09-24T18:02:40.810Z,101643.84
2022-09-24T18:05:10.709Z,101652.88
2022-09-24T18:07:39.781Z,101649.34
2022-09-24T18:10:07.807Z,101647.44
2022-09-24T18:12:35.568Z,101662.41
2022-09-24T18:15:03.325Z,101657.66
2022-09-24T18:17:31.038Z,101652.97
2022-09-24T18:19:59.315Z,101656.41
2022-09-24T18:22:27.093Z,101662.91
2022-09-24T18:24:56.224Z,101668.31
2022-09-24T18:27:24.023Z,101668.38
2022-09-24T18:29:52.275Z,101670.97
2022-09-24T18:32:20.491Z,101676.34
2022-09-24T18:34:48.238Z,101678.09
2022-09-24T18:37:15.986Z,101680.97
2022-09-24T18:39:44.069Z,101683.53
2022-09-24T18:42:13.078Z,101680.53
2022-09-24T18:44:40.770Z,101688.69
2022-09-24T18:47:08.322Z,101693.25
2022-09-24T18:49:36.555Z,101689.38
2022-09-24T18:52:04.151Z,101688.00
2022-09-24T18:54:31.748Z,101691.72
2022-09-24T18:56:59.367Z,101692.31
2022-09-24T18:59:29.141Z,101696.84
2022-09-24T19:01:56.817Z,101695.78
2022-09-24T19:04:26.933Z,101703.66
2022-09-24T19:06:57.485Z,101696.97
2022-09-24T19:09:25.094Z,101701.22
2022-09-24T19:11:52.704Z,101698.19
2022-09-24T19:14:20.299Z,101693.16
2022-09-24T19:16:49.204Z,101697.69
2022-09-24T19:19:17.143Z,101703.06
2022-09-24T19:21:44.957Z,101700.00
2022-09-24T19:24:12.684Z,101703.44
2022-09-24T19:26:40.310Z,101703.47
2022-09-24T19:29:07.988Z,101705.44
2022-09-24T19:31:37.042Z,101706.88
2022-09-24T19:34:06.613Z,101702.16
2022-09-24T19:36:42.904Z,101711.97
2022-09-24T19:39:12.238Z,101705.84
2022-09-24T19:41:39.985Z,101711.75
2022-09-24T19:44:09.237Z,101718.78
2022-09-24T19:46:38.437Z,101716.53
2022-09-24T19:49:07.929Z,101714.03
2022-09-24T19:51:35.911Z,101710.97
2022-09-24T19:54:04.321Z,101712.41
2022-09-24T19:56:32.198Z,101706.25
2022-09-24T19:59:00.721Z,101707.69
2022-09-24T20:01:29.393Z,101711.94
2022-09-24T20:03:57.330Z,101706.06
2022-09-24T20:06:28.783Z,101700.22
2022-09-24T20:08:57.161Z,101698.00
2022-09-24T20:11:25.590Z,101701.94
2022-09-24T20:13:54.232Z,101701.38
2022-09-24T20:16:22.841Z,101708.41
2022-09-24T20:18:51.497Z,101713.47
2022-09-24T20:21:19.769Z,101716.59
2022-09-24T20:23:49.362Z,101715.22
2022-09-24T20:26:35.165Z,101715.22
2022-09-24T20:29:03.297Z,101710.19
2022-09-24T20:31:31.077Z,101713.56
2022-09-24T20:33:58.656Z,101716.94
2022-09-24T20:36:26.288Z,101712.75
2022-09-24T20:38:55.497Z,101714.47
2022-09-24T20:41:24.017Z,101719.56
2022-09-24T20:43:51.959Z,101718.47
2022-09-24T20:46:22.054Z,101716.22
2022-09-24T20:48:49.840Z,101715.13
2022-09-24T20:51:18.605Z,101722.69
2022-09-24T20:53:46.459Z,101723.28
2022-09-24T20:56:15.701Z,101719.94
2022-09-24T20:58:43.278Z,101726.97
2022-09-24T21:01:11.476Z,101733.16
2022-09-24T21:03:44.491Z,101723.66
2022-09-24T21:06:13.297Z,101730.66
2022-09-24T21:08:41.688Z,101725.91
2022-09-24T21:11:10.469Z,101725.66
2022-09-24T21:13:42.383Z,101725.44
2022-09-24T21:16:10.193Z,101723.50
2022-09-24T21:18:40.357Z,101727.97
2022-09-24T21:21:11.275Z,101726.88
2022-09-24T21:23:39.638Z,101718.22
2022-09-24T21:26:11.467Z,101727.22
2022-09-24T21:28:39.358Z,101717.72
2022-09-24T21:31:08.814Z,101713.81
2022-09-24T21:33:36.516Z,101730.03
2022-09-24T21:36:04.845Z,101724.72
2022-09-24T21:38:32.386Z,101721.38
2022-09-24T21:41:01.308Z,101725.31
2022-09-24T21:43:34.457Z,101729.22
2022-09-24T21:46:03.476Z,101727.84
2022-09-24T21:48:32.715Z,101729.25
2022-09-24T21:51:04.422Z,101728.69
2022-09-24T21:53:32.864Z,101727.28
2022-09-24T21:56:00.629Z,101726.72
2022-09-24T21:58:29.162Z,101722.53
2022-09-24T22:00:56.836Z,101727.59
2022-09-24T22:03:24.428Z,101724.22
2022-09-24T22:05:53.396Z,101727.59
2022-09-24T22:08:27.133Z,101724.56
2022-09-24T22:11:01.362Z,101722.03
2022-09-24T22:13:29.070Z,101719.81
2022-09-24T22:15:57.775Z,101725.69
2022-09-24T22:18:25.476Z,101725.13
2022-09-24T22:20:55.063Z,101724.84
2022-09-24T22:23:22.630Z,101722.91
2022-09-24T22:25:54.655Z,101723.50
2022-09-24T22:28:25.304Z,101727.13
2022-09-24T22:30:53.044Z,101721.28
2022-09-24T22:33:38.305Z,101723.78
2022-09-24T22:36:07.545Z,101720.16
2022-09-24T22:38:35.863Z,101723.22
2022-09-24T22:41:04.617Z,101731.38
2022-09-24T22:43:32.475Z,101722.44
2022-09-24T22:46:00.462Z,101719.34
2022-09-24T22:48:28.100Z,101712.38
2022-09-24T22:50:56.006Z,101719.34
2022-09-24T22:53:25.070Z,101717.13
2022-09-24T22:56:02.692Z,101713.25
2022-09-24T22:58:31.121Z,101724.13
2022-09-24T23:01:06.157Z,101719.94
2022-09-24T23:03:33.793Z,101719.38
2022-09-24T23:06:01.307Z,101720.22
2022-09-24T23:08:33.265Z,101718.81
2022-09-24T23:11:08.062Z,101723.00
2022-09-24T23:13:35.992Z,101717.16
2022-09-24T23:16:07.364Z,101718.84
2022-09-24T23:18:35.064Z,101726.91
2022-09-24T23:21:05.096Z,101715.47
2022-09-24T23:23:34.272Z,101717.13
2022-09-24T23:26:04.972Z,101714.63
2022-09-24T23:28:33.785Z,101719.09
2022-09-24T23:31:01.821Z,101711.28
2022-09-24T23:33:31.278Z,101715.47
2022-09-24T23:35:58.893Z,101713.78
2022-09-24T23:38:26.482Z,101710.44
2022-09-24T23:40:56.295Z,101717.97
2022-09-24T23:43:24.005Z,101715.47
2022-09-24T23:45:51.618Z,101713.78
2022-09-24T23:48:19.201Z,101712.94
2022-09-24T23:50:47.838Z,101723.28
2022-09-24T23:53:16.405Z,101723.00
2022-09-24T23:55:46.237Z,101730.56
2022-09-24T23:58:15.931Z,101722.72
